Time;durP1;ratioP1;P1;durP2;ratioP2;P2;SDS_P1;SDS_P2;PMS_P1;PMS_P2;Temp;Humidity;BMP_temperature;BMP_pressure;BME280_temperature;BME280_humidity;BME280_pressure;Samples;Min_cycle;Max_cycle;Signal;HPM_P1;HPM_P2
2021/05/11 00:02:03;;;;;;;4.53;4.23;;;17.40;99.90;;;;;;5134618;28;20203;-68
2021/05/11 00:04:29;;;;;;;4.23;3.83;;;17.40;99.90;;;;;;5134079;27;20669;-67
2021/05/11 00:06:54;;;;;;;7.57;4.00;;;17.40;99.90;;;;;;5135438;27;20628;-67
2021/05/11 00:09:20;;;;;;;4.20;3.83;;;17.30;99.90;;;;;;5137592;27;20208;-68
2021/05/11 00:11:45;;;;;;;5.00;3.90;;;17.30;99.90;;;;;;5137903;27;20231;-68
2021/05/11 00:14:11;;;;;;;5.70;4.03;;;17.30;99.90;;;;;;5137621;27;20600;-67
2021/05/11 00:16:37;;;;;;;4.17;3.77;;;17.20;99.90;;;;;;5119267;27;20535;-69
2021/05/11 00:19:06;;;;;;;3.80;3.50;;;17.20;99.90;;;;;;5137435;27;20212;-67
2021/05/11 00:21:32;;;;;;;4.90;3.70;;;17.10;99.90;;;;;;5119062;27;20172;-68
2021/05/11 00:23:58;;;;;;;4.13;3.83;;;17.10;99.90;;;;;;5137348;27;20436;-68
2021/05/11 00:26:23;;;;;;;4.17;3.80;;;17.10;99.90;;;;;;5119104;27;20411;-66
2021/05/11 00:28:49;;;;;;;6.80;3.30;;;17.20;99.90;;;;;;5137016;27;20669;-69
2021/05/11 00:31:15;;;;;;;5.00;3.77;;;17.10;99.90;;;;;;5137110;27;20207;-68
2021/05/11 00:33:41;;;;;;;4.13;3.77;;;17.10;99.90;;;;;;5137176;27;20631;-66
2021/05/11 00:36:06;;;;;;;4.73;3.90;;;17.00;99.90;;;;;;5137478;27;20419;-67
2021/05/11 00:38:32;;;;;;;4.07;3.67;;;17.00;99.90;;;;;;5137011;27;20197;-68
2021/05/11 00:40:57;;;;;;;4.40;3.70;;;17.00;99.90;;;;;;5137161;27;20200;-67
2021/05/11 00:43:23;;;;;;;3.60;3.30;;;17.00;99.90;;;;;;5137014;27;20206;-66
2021/05/11 00:45:49;;;;;;;4.00;3.40;;;17.00;99.90;;;;;;5137037;27;20267;-68
2021/05/11 00:48:14;;;;;;;3.77;3.40;;;17.00;99.90;;;;;;5118563;27;20331;-68
2021/05/11 00:50:40;;;;;;;3.83;3.53;;;17.00;99.90;;;;;;5136965;27;20631;-66
2021/05/11 00:53:06;;;;;;;3.53;3.23;;;17.00;99.90;;;;;;5136806;27;20272;-68
2021/05/11 00:55:32;;;;;;;4.60;4.13;;;17.00;99.90;;;;;;5136941;27;20169;-67
2021/05/11 00:57:58;;;;;;;6.33;4.37;;;16.90;99.90;;;;;;5136709;27;20311;-67
2021/05/11 01:00:24;;;;;;;4.27;3.87;;;16.90;99.90;;;;;;5118246;27;20408;-67
2021/05/11 01:02:49;;;;;;;4.20;3.57;;;16.80;99.90;;;;;;5118174;27;20687;-68
2021/05/11 01:05:16;;;;;;;4.50;4.10;;;16.90;99.90;;;;;;5136568;27;20289;-69
2021/05/11 01:07:41;;;;;;;3.90;3.60;;;16.90;99.90;;;;;;5118059;27;20801;-67
2021/05/11 01:10:07;;;;;;;3.90;3.60;;;16.80;99.90;;;;;;5136616;27;20391;-68
2021/05/11 01:12:33;;;;;;;5.70;4.43;;;16.70;99.90;;;;;;5136157;27;20614;-67
2021/05/11 01:14:59;;;;;;;10.37;3.47;;;16.60;99.90;;;;;;5117965;27;20428;-70
2021/05/11 01:17:30;;;;;;;4.07;3.70;;;16.40;99.90;;;;;;5136395;27;20559;-67
2021/05/11 01:19:59;;;;;;;4.70;4.30;;;16.40;99.90;;;;;;5136310;27;20491;-67
2021/05/11 01:30:42;;;;;;;9.23;5.03;;;16.10;99.90;;;;;;5122439;27;20482;-67
2021/05/11 01:52:33;;;;;;;6.13;5.53;;;15.50;99.90;;;;;;5136052;27;20475;-66
2021/05/11 01:55:40;;;;;;;6.23;5.63;;;15.40;99.90;;;;;;5135603;27;20775;-68
2021/05/11 02:22:39;;;;;;;6.30;5.70;;;15.00;99.90;;;;;;5135581;27;20414;-66
2021/05/11 02:25:06;;;;;;;6.90;6.27;;;14.90;99.90;;;;;;5135249;27;20392;-69
2021/05/11 02:27:32;;;;;;;6.67;5.70;;;14.90;99.90;;;;;;5116824;27;20513;-66
2021/05/11 02:29:58;;;;;;;7.47;5.77;;;14.80;99.90;;;;;;5115779;27;20570;-66
2021/05/11 02:32:24;;;;;;;5.87;5.37;;;14.70;99.90;;;;;;5135369;27;20918;-68
2021/05/11 02:34:50;;;;;;;6.30;5.50;;;14.70;99.90;;;;;;5134885;27;20426;-67
2021/05/11 02:37:15;;;;;;;10.80;6.47;;;14.60;99.90;;;;;;5135347;27;20407;-66
2021/05/11 02:39:41;;;;;;;6.50;5.60;;;14.50;99.90;;;;;;5134861;27;20404;-68
2021/05/11 02:42:07;;;;;;;7.30;6.07;;;14.50;99.90;;;;;;5135488;27;20179;-68
2021/05/11 02:44:40;;;;;;;8.30;7.07;;;14.40;99.90;;;;;;5134757;27;20269;-68
2021/05/11 02:47:06;;;;;;;6.67;6.03;;;14.50;99.90;;;;;;5135362;27;20426;-68
2021/05/11 02:49:32;;;;;;;11.37;6.50;;;14.50;99.90;;;;;;5116394;28;20471;-68
2021/05/11 02:51:58;;;;;;;8.87;6.37;;;14.50;99.90;;;;;;5135096;27;20493;-67
2021/05/11 02:54:23;;;;;;;7.03;5.87;;;14.50;99.90;;;;;;5116200;28;20203;-66
2021/05/11 02:56:49;;;;;;;6.13;5.53;;;14.50;99.90;;;;;;5134955;28;20174;-67
2021/05/11 02:59:14;;;;;;;8.27;5.80;;;14.50;99.90;;;;;;5134607;27;20187;-69
2021/05/11 03:01:40;;;;;;;5.67;5.03;;;14.40;99.90;;;;;;5134970;28;20175;-67
2021/05/11 03:04:06;;;;;;;6.20;5.60;;;14.40;99.90;;;;;;5134770;27;20194;-66
2021/05/11 03:06:31;;;;;;;5.93;5.10;;;14.40;99.90;;;;;;5116381;28;20175;-68
2021/05/11 03:08:57;;;;;;;6.57;5.60;;;14.30;99.90;;;;;;5116018;28;20191;-68
2021/05/11 03:11:22;;;;;;;8.30;5.33;;;14.30;99.90;;;;;;5134674;28;20286;-66
2021/05/11 03:13:48;;;;;;;6.10;4.60;;;14.30;99.90;;;;;;5134385;27;20191;-67
2021/05/11 03:16:15;;;;;;;4.70;4.37;;;14.30;99.90;;;;;;5134688;28;20178;-67
2021/05/11 03:18:43;;;;;;;13.83;5.70;;;14.30;99.90;;;;;;5115921;28;20211;-68
2021/05/11 03:21:09;;;;;;;5.80;5.13;;;14.20;99.90;;;;;;5116184;28;20427;-67
2021/05/11 03:23:34;;;;;;;6.03;5.23;;;14.20;99.90;;;;;;5134400;27;20423;-68
2021/05/11 03:26:00;;;;;;;5.77;5.23;;;14.30;99.90;;;;;;5134548;28;20199;-67
2021/05/11 03:28:26;;;;;;;7.40;6.10;;;14.50;99.90;;;;;;5134326;27;20536;-67
2021/05/11 03:30:51;;;;;;;4.83;4.43;;;14.60;99.90;;;;;;5116162;28;20672;-68
2021/05/11 03:33:17;;;;;;;5.60;5.10;;;14.60;99.90;;;;;;5134345;27;20215;-68
2021/05/11 03:35:42;;;;;;;5.23;4.70;;;14.60;99.90;;;;;;5134392;28;20171;-67
2021/05/11 03:38:09;;;;;;;5.50;5.00;;;14.60;99.90;;;;;;5134219;27;20195;-67
2021/05/11 03:40:35;;;;;;;5.80;4.63;;;14.60;99.90;;;;;;5134923;27;20623;-68
2021/05/11 03:43:05;;;;;;;7.50;5.07;;;14.60;99.90;;;;;;5119751;27;20430;-66
2021/05/11 03:45:39;;;;;;;5.43;4.93;;;14.60;99.90;;;;;;5138212;27;20174;-66
2021/05/11 03:48:05;;;;;;;6.80;5.53;;;14.70;99.90;;;;;;5138109;27;20430;-66
2021/05/11 03:50:30;;;;;;;6.47;5.60;;;14.80;99.90;;;;;;5118090;27;20787;-68
2021/05/11 03:52:56;;;;;;;7.23;5.20;;;14.70;99.90;;;;;;5137879;27;20215;-68
2021/05/11 03:55:22;;;;;;;7.63;5.00;;;14.70;99.90;;;;;;5137849;27;20182;-66
2021/05/11 03:57:47;;;;;;;5.80;5.20;;;14.70;99.90;;;;;;5137829;27;20210;-66
2021/05/11 04:00:14;;;;;;;5.50;5.00;;;14.60;99.90;;;;;;5137847;27;20182;-68
2021/05/11 04:02:39;;;;;;;4.83;4.20;;;14.60;99.90;;;;;;5119376;27;20625;-69
2021/05/11 04:05:10;;;;;;;5.13;4.60;;;14.60;99.90;;;;;;5137866;27;20399;-68
2021/05/11 04:07:37;;;;;;;7.30;4.87;;;14.50;99.90;;;;;;5138270;27;20636;-68
2021/05/11 04:10:12;;;;;;;4.97;4.47;;;14.50;99.90;;;;;;5136777;27;21003;-67
2021/05/11 04:17:49;;;;;;;5.40;4.50;;;14.60;99.90;;;;;;5137459;27;20233;-66
2021/05/11 04:20:14;;;;;;;6.13;4.70;;;14.70;99.90;;;;;;5118993;27;20411;-69
2021/05/11 04:22:40;;;;;;;5.20;4.40;;;14.60;99.90;;;;;;5137373;27;20682;-69
2021/05/11 04:25:06;;;;;;;5.60;4.77;;;14.70;99.90;;;;;;5137458;27;20198;-68
2021/05/11 04:27:32;;;;;;;4.47;4.10;;;14.80;99.90;;;;;;5136363;27;20571;-68
2021/05/11 04:30:01;;;;;;;7.33;4.90;;;15.30;99.90;;;;;;5117764;27;20477;-66
2021/05/11 04:32:27;;;;;;;5.07;4.00;;;15.30;99.90;;;;;;5135966;27;20207;-66
2021/05/11 04:34:52;;;;;;;4.67;4.23;;;15.30;99.90;;;;;;5136407;27;20423;-67
2021/05/11 04:37:18;;;;;;;4.80;4.30;;;15.20;99.90;;;;;;5137428;27;20177;-66
2021/05/11 04:39:44;;;;;;;3.90;3.50;;;15.30;99.90;;;;;;5136585;27;20194;-68
2021/05/11 04:42:10;;;;;;;7.03;4.70;;;15.60;99.90;;;;;;5136493;27;20183;-67
2021/05/11 04:44:35;;;;;;;4.63;4.23;;;15.80;99.90;;;;;;5134924;27;20465;-68
2021/05/11 04:47:12;;;;;;;6.43;4.73;;;15.70;99.90;;;;;;5134611;27;20171;-68
2021/05/11 04:49:38;;;;;;;4.77;4.03;;;15.60;99.90;;;;;;5115394;27;20789;-68
2021/05/11 04:52:05;;;;;;;4.20;3.80;;;15.60;99.90;;;;;;5134322;27;20469;-68
2021/05/11 04:54:30;;;;;;;6.00;3.70;;;15.60;99.90;;;;;;5116927;27;20535;-68
2021/05/11 04:56:56;;;;;;;5.73;4.10;;;15.70;99.90;;;;;;5125100;27;20829;-67
2021/05/11 04:59:21;;;;;;;4.03;3.63;;;15.90;99.90;;;;;;5130929;27;20698;-67
2021/05/11 05:01:49;;;;;;;4.07;3.63;;;16.00;99.90;;;;;;5136038;27;20208;-66
2021/05/11 05:04:16;;;;;;;5.60;4.23;;;16.00;99.90;;;;;;5126302;27;20202;-67
2021/05/11 05:06:41;;;;;;;4.77;3.57;;;16.30;99.90;;;;;;5133870;27;20979;-67
2021/05/11 05:09:07;;;;;;;5.23;3.73;;;16.40;99.90;;;;;;5133551;27;20437;-68
2021/05/11 05:11:40;;;;;;;5.77;3.60;;;16.40;99.90;;;;;;5113485;27;20203;-68
2021/05/11 05:14:09;;;;;;;3.63;2.87;;;16.60;99.90;;;;;;5132530;27;20631;-68
2021/05/11 05:16:35;;;;;;;3.80;3.50;;;16.80;99.90;;;;;;5133833;27;20468;-68
2021/05/11 05:19:03;;;;;;;7.57;3.07;;;16.80;99.90;;;;;;5113904;27;20906;-66
2021/05/11 05:21:29;;;;;;;4.17;3.30;;;16.80;99.90;;;;;;5134788;27;20419;-67
2021/05/11 05:24:03;;;;;;;3.53;3.20;;;16.90;99.90;;;;;;5134785;27;20808;-68
2021/05/11 05:26:30;;;;;;;3.83;3.43;;;16.90;99.90;;;;;;5135361;27;20186;-66
2021/05/11 05:28:57;;;;;;;4.40;3.13;;;16.90;99.90;;;;;;5133944;27;20484;-66
2021/05/11 05:31:23;;;;;;;5.93;2.60;;;17.00;99.90;;;;;;5136025;27;20536;-68
2021/05/11 05:33:49;;;;;;;4.30;3.43;;;17.10;99.90;;;;;;5134057;27;20439;-66
2021/05/11 05:36:14;;;;;;;5.33;3.70;;;17.30;99.90;;;;;;5134360;27;20258;-67
2021/05/11 05:38:41;;;;;;;3.67;3.33;;;17.40;99.90;;;;;;5135073;27;20210;-67
2021/05/11 05:41:10;;;;;;;7.10;3.50;;;17.60;99.90;;;;;;5132393;27;20250;-68
2021/05/11 05:43:36;;;;;;;4.97;3.53;;;17.80;99.90;;;;;;5115249;27;20447;-67
2021/05/11 05:46:02;;;;;;;4.20;3.53;;;17.80;99.90;;;;;;5116480;27;20483;-69
2021/05/11 05:48:29;;;;;;;3.57;3.23;;;17.80;99.90;;;;;;5130303;27;20205;-68
2021/05/11 05:50:58;;;;;;;7.37;3.60;;;17.90;99.90;;;;;;5131411;27;20924;-68
2021/05/11 05:53:31;;;;;;;3.80;3.50;;;18.00;99.90;;;;;;5131875;27;20474;-66
2021/05/11 05:55:56;;;;;;;5.63;3.70;;;18.00;99.90;;;;;;5125478;27;20445;-68
2021/05/11 05:58:22;;;;;;;6.30;3.70;;;18.00;99.90;;;;;;5130928;27;20951;-66
2021/05/11 06:00:53;;;;;;;4.17;3.60;;;18.00;99.90;;;;;;5114914;27;20179;-68
2021/05/11 06:05:57;;;;;;;3.70;3.17;;;18.70;99.90;;;;;;5134178;27;20503;-67
2021/05/11 06:08:24;;;;;;;3.27;2.97;;;18.90;99.90;;;;;;5134983;27;20800;-66
2021/05/11 06:10:54;;;;;;;5.73;3.03;;;18.80;99.90;;;;;;5127737;27;20447;-68
2021/05/11 06:13:22;;;;;;;3.70;3.37;;;18.50;99.90;;;;;;5126091;27;21008;-67
2021/05/11 06:18:32;;;;;;;4.20;3.77;;;18.50;99.90;;;;;;5127134;27;20456;-68
2021/05/11 06:20:57;;;;;;;5.30;3.00;;;18.70;99.90;;;;;;5126905;27;20429;-67
2021/05/11 06:23:23;;;;;;;4.50;4.10;;;19.00;99.90;;;;;;5131820;27;20263;-68
2021/05/11 06:25:48;;;;;;;6.70;3.87;;;19.00;99.90;;;;;;5130523;27;20179;-67
2021/05/11 06:28:14;;;;;;;5.60;3.70;;;19.00;99.90;;;;;;5134829;27;20569;-67
2021/05/11 06:30:40;;;;;;;6.10;4.03;;;18.90;99.90;;;;;;5124060;27;20224;-67
2021/05/11 06:33:07;;;;;;;4.20;3.80;;;18.90;99.90;;;;;;5121641;27;20481;-68
2021/05/11 06:35:34;;;;;;;3.50;3.20;;;19.20;99.90;;;;;;5128144;27;20201;-69
2021/05/11 06:38:01;;;;;;;3.27;2.83;;;19.40;99.90;;;;;;5131128;27;20459;-68
2021/05/11 06:40:29;;;;;;;3.07;2.87;;;19.60;99.90;;;;;;5117110;27;20404;-67
2021/05/11 06:42:56;;;;;;;5.23;3.20;;;19.90;99.90;;;;;;5123734;27;20437;-69
2021/05/11 06:53:41;;;;;;;3.53;3.23;;;20.10;99.90;;;;;;5114641;28;20430;-67
2021/05/11 06:56:09;;;;;;;3.00;2.67;;;20.20;99.90;;;;;;5113220;28;20955;-69
2021/05/11 06:58:35;;;;;;;3.10;2.90;;;20.10;99.90;;;;;;5130001;27;20477;-69
2021/05/11 07:01:01;;;;;;;6.40;3.17;;;20.20;99.90;;;;;;5129123;28;20842;-69
2021/05/11 07:03:27;;;;;;;3.13;2.53;;;20.40;99.90;;;;;;5108252;28;20208;-69
2021/05/11 07:05:53;;;;;;;5.83;3.83;;;20.70;99.90;;;;;;5109566;28;20845;-68
2021/05/11 07:08:28;;;;;;;4.57;3.10;;;20.90;99.90;;;;;;5111746;28;20258;-69
2021/05/11 07:10:56;;;;;;;3.10;2.80;;;20.90;98.80;;;;;;5128770;28;20542;-68
2021/05/11 07:13:22;;;;;;;4.80;2.97;;;21.10;99.80;;;;;;5127280;28;20972;-69
2021/05/11 07:15:49;;;;;;;9.60;3.43;;;21.30;99.00;;;;;;5131965;27;20506;-69
2021/05/11 07:18:18;;;;;;;2.97;2.60;;;21.20;98.10;;;;;;5132320;27;20198;-69
2021/05/11 07:20:46;;;;;;;3.03;2.63;;;21.30;97.90;;;;;;5129009;27;20423;-69
2021/05/11 07:23:17;;;;;;;3.40;2.90;;;21.50;97.80;;;;;;5135956;27;20517;-67
2021/05/11 07:30:57;;;;;;;4.13;2.73;;;21.80;96.20;;;;;;5132900;27;20839;-70
2021/05/11 07:33:31;;;;;;;4.60;2.90;;;21.60;96.50;;;;;;5133855;27;20844;-67
2021/05/11 07:35:56;;;;;;;4.20;3.07;;;21.60;95.50;;;;;;5132334;27;20430;-66
2021/05/11 07:38:24;;;;;;;8.10;3.03;;;21.80;96.40;;;;;;5134001;27;20451;-68
2021/05/11 07:40:50;;;;;;;4.87;2.90;;;22.10;97.10;;;;;;5135567;27;20179;-67
2021/05/11 07:43:16;;;;;;;3.50;3.20;;;22.40;95.60;;;;;;5136039;27;20494;-68
2021/05/11 08:04:41;;;;;;;2.73;2.50;;;22.50;94.90;;;;;;5125482;27;20811;-67
2021/05/11 08:10:02;;;;;;;3.70;2.77;;;22.90;94.80;;;;;;5130895;27;20430;-68
2021/05/11 08:15:29;;;;;;;7.83;3.00;;;23.40;95.40;;;;;;5135319;27;20401;-69
2021/05/11 08:23:31;;;;;;;6.60;3.43;;;23.70;93.10;;;;;;5136504;27;20946;-67
2021/05/11 08:28:42;;;;;;;3.20;2.77;;;24.10;93.60;;;;;;5135246;27;20458;-67
2021/05/11 08:31:08;;;;;;;3.37;3.13;;;24.00;92.00;;;;;;5135854;27;20449;-68
2021/05/11 08:33:34;;;;;;;4.33;2.80;;;24.00;92.50;;;;;;5136092;27;20556;-70
2021/05/11 08:36:00;;;;;;;3.83;2.67;;;24.20;92.00;;;;;;5117687;27;20238;-68
2021/05/11 08:38:26;;;;;;;3.73;2.80;;;24.10;91.70;;;;;;5135675;27;20800;-69
2021/05/11 08:40:52;;;;;;;9.13;2.70;;;24.10;91.80;;;;;;5135370;27;20425;-69
2021/05/11 08:43:45;;;;;;;13.17;3.10;;;24.20;91.50;;;;;;5135448;27;20437;-68
2021/05/11 08:46:11;;;;;;;3.40;2.60;;;24.30;91.50;;;;;;5132326;27;20675;-69
2021/05/11 08:48:37;;;;;;;2.87;2.60;;;24.40;91.60;;;;;;5134179;27;20469;-70
2021/05/11 08:54:22;;;;;;;2.53;2.30;;;24.60;91.10;;;;;;5136614;27;20468;-68
2021/05/11 09:30:07;;;;;;;2.60;2.40;;;25.20;88.60;;;;;;5135017;27;20466;-69
2021/05/11 09:57:23;;;;;;;3.17;2.97;;;26.20;86.40;;;;;;5134810;27;20538;-67
2021/05/11 10:49:29;;;;;;;3.03;2.70;;;27.40;83.30;;;;;;5131177;27;20455;-69
2021/05/11 10:52:26;;;;;;;4.03;3.60;;;28.00;80.30;;;;;;5111195;27;20498;-68
2021/05/11 10:55:25;;;;;;;4.53;3.20;;;27.90;81.90;;;;;;5132886;27;20415;-68
2021/05/11 11:00:36;;;;;;;6.03;3.47;;;27.50;80.80;;;;;;5131399;28;20952;-68
2021/05/11 11:03:22;;;;;;;3.37;3.10;;;27.80;81.80;;;;;;5108647;28;20806;-67
2021/05/11 11:06:00;;;;;;;4.70;3.43;;;27.50;80.50;;;;;;5128914;28;20435;-67
2021/05/11 11:08:37;;;;;;;3.33;3.03;;;27.60;79.10;;;;;;5129698;28;20530;-67
2021/05/11 11:11:10;;;;;;;3.37;3.07;;;27.70;78.90;;;;;;5133295;28;20431;-69
2021/05/11 11:13:37;;;;;;;7.80;3.57;;;27.90;80.80;;;;;;5132535;28;20494;-68
2021/05/11 11:16:04;;;;;;;3.70;3.10;;;27.70;77.60;;;;;;5131556;28;20460;-67
2021/05/11 11:18:29;;;;;;;3.37;2.90;;;27.70;78.50;;;;;;5130148;28;20611;-68
2021/05/11 11:23:49;;;;;;;3.40;3.10;;;28.00;78.30;;;;;;5128647;27;20206;-68
2021/05/11 11:26:29;;;;;;;4.73;3.50;;;27.90;78.20;;;;;;5125486;28;20449;-68
2021/05/11 11:29:11;;;;;;;4.33;3.00;;;28.00;79.10;;;;;;5121749;28;20447;-70
2021/05/11 11:31:40;;;;;;;3.73;3.17;;;28.40;78.00;;;;;;5104518;28;20518;-67
2021/05/11 11:34:19;;;;;;;4.03;2.87;;;28.70;78.00;;;;;;5126626;28;20436;-69
2021/05/11 11:36:55;;;;;;;4.53;3.23;;;28.20;76.20;;;;;;5126632;28;20924;-69
2021/05/11 11:39:27;;;;;;;5.50;3.30;;;28.20;75.90;;;;;;5127217;28;20517;-70
2021/05/11 11:41:54;;;;;;;3.20;3.00;;;28.30;76.90;;;;;;5111118;28;20448;-67
2021/05/11 11:44:23;;;;;;;3.60;3.30;;;28.40;76.40;;;;;;5112934;28;20810;-69
2021/05/11 11:47:05;;;;;;;4.23;3.20;;;28.50;77.80;;;;;;5112542;28;20440;-67
2021/05/11 11:49:35;;;;;;;3.50;3.00;;;28.90;75.70;;;;;;5132670;27;20443;-68
2021/05/11 11:52:13;;;;;;;3.73;3.43;;;29.30;78.20;;;;;;5133186;28;20800;-68
2021/05/11 11:54:44;;;;;;;4.00;3.03;;;29.60;75.80;;;;;;5129926;28;20455;-70
2021/05/11 12:00:12;;;;;;;5.80;3.10;;;29.20;74.10;;;;;;5128610;28;20829;-69
2021/05/11 12:02:37;;;;;;;3.27;3.07;;;29.30;74.10;;;;;;5110699;27;20862;-69
2021/05/11 12:05:13;;;;;;;3.80;2.70;;;29.80;73.50;;;;;;5131028;27;20408;-69
2021/05/11 12:10:25;;;;;;;3.37;3.17;;;29.70;73.20;;;;;;5130550;27;20836;-67
2021/05/11 12:12:50;;;;;;;2.97;2.23;;;29.00;71.90;;;;;;5129230;27;20850;-67
2021/05/11 12:15:20;;;;;;;3.63;3.33;;;29.50;71.90;;;;;;5129272;27;20425;-70
2021/05/11 12:20:39;;;;;;;5.47;2.87;;;29.40;71.40;;;;;;5126459;27;20429;-67
2021/05/11 12:23:17;;;;;;;5.57;2.77;;;29.30;72.40;;;;;;5126492;27;20426;-68
2021/05/11 12:25:54;;;;;;;3.87;3.20;;;29.20;71.60;;;;;;5122717;27;20217;-67
2021/05/11 12:28:29;;;;;;;3.60;3.30;;;29.20;70.80;;;;;;5132909;27;20532;-68
2021/05/11 12:30:54;;;;;;;3.73;3.10;;;29.00;71.50;;;;;;5130687;27;20461;-69
2021/05/11 12:33:37;;;;;;;3.30;3.00;;;28.90;72.50;;;;;;5129035;27;20487;-69
2021/05/11 12:36:22;;;;;;;2.97;2.67;;;29.10;70.60;;;;;;5098381;27;20273;-67
2021/05/11 12:38:49;;;;;;;2.93;2.70;;;29.90;71.70;;;;;;5127886;27;20466;-68
2021/05/11 12:41:32;;;;;;;3.30;3.00;;;29.80;73.10;;;;;;5132119;27;20563;-67
2021/05/11 12:43:59;;;;;;;6.13;3.50;;;30.00;71.00;;;;;;5132699;27;20797;-68
2021/05/11 12:46:36;;;;;;;4.80;2.73;;;30.50;70.40;;;;;;5126485;27;20445;-70
2021/05/11 12:49:05;;;;;;;3.20;2.83;;;30.70;70.60;;;;;;5134523;27;20441;-69
2021/05/11 12:51:46;;;;;;;2.63;2.30;;;30.20;68.80;;;;;;5135216;27;20426;-69
2021/05/11 12:54:37;;;;;;;3.00;2.70;;;30.20;68.80;;;;;;5112372;27;20496;-68
2021/05/11 12:57:26;;;;;;;3.30;2.50;;;30.40;68.60;;;;;;5128567;27;20442;-69
2021/05/11 13:00:15;;;;;;;2.57;2.37;;;30.20;69.90;;;;;;5121540;27;20437;-68
2021/05/11 13:02:47;;;;;;;5.00;3.20;;;30.50;69.40;;;;;;5127895;27;20442;-70
2021/05/11 13:16:25;;;;;;;3.00;2.80;;;30.20;68.60;;;;;;5113535;27;21525;-68
2021/05/11 13:32:16;;;;;;;4.47;2.70;;;30.80;68.50;;;;;;5134404;27;20825;-70
2021/05/11 13:34:41;;;;;;;4.80;3.00;;;30.20;66.10;;;;;;5133990;27;20473;-68
2021/05/11 13:37:07;;;;;;;4.57;2.73;;;30.60;67.00;;;;;;5135922;27;20433;-68
2021/05/11 13:39:32;;;;;;;3.70;3.07;;;30.30;67.20;;;;;;5135682;27;20226;-69
2021/05/11 13:41:58;;;;;;;2.90;2.70;;;30.70;67.10;;;;;;5135326;27;20218;-69
2021/05/11 13:44:23;;;;;;;3.30;2.97;;;31.20;67.10;;;;;;5128044;27;20213;-68
2021/05/11 13:46:49;;;;;;;5.03;3.90;;;31.20;66.50;;;;;;5139241;27;20208;-69
2021/05/11 13:49:17;;;;;;;4.93;2.70;;;31.20;67.80;;;;;;5119068;27;20223;-68
2021/05/11 13:51:43;;;;;;;4.30;2.97;;;31.00;67.40;;;;;;5121281;27;20199;-68
2021/05/11 13:54:10;;;;;;;3.77;3.47;;;31.00;67.30;;;;;;5122856;27;20508;-69
2021/05/11 14:04:15;;;;;;;3.00;2.80;;;30.70;67.40;;;;;;5126996;27;20432;-71
2021/05/11 14:06:41;;;;;;;5.60;3.20;;;30.80;67.50;;;;;;5112985;27;20977;-69
2021/05/11 14:09:07;;;;;;;2.77;2.57;;;31.00;67.70;;;;;;5131319;27;20443;-69
2021/05/11 14:11:34;;;;;;;3.10;2.83;;;31.30;66.90;;;;;;5131739;27;20428;-69
2021/05/11 14:14:00;;;;;;;3.23;3.03;;;31.00;66.50;;;;;;5113991;27;20463;-68
2021/05/11 14:16:26;;;;;;;2.87;2.67;;;30.80;66.10;;;;;;5132669;27;20450;-69
2021/05/11 14:18:52;;;;;;;3.90;3.50;;;30.50;65.50;;;;;;5114426;27;20475;-69
2021/05/11 14:21:18;;;;;;;2.80;2.60;;;30.50;65.90;;;;;;5131589;27;20209;-68
2021/05/11 14:23:43;;;;;;;3.60;2.80;;;30.80;67.30;;;;;;5121246;27;20238;-70
2021/05/11 14:26:09;;;;;;;4.23;2.77;;;30.50;66.40;;;;;;5122628;27;20194;-68
2021/05/11 14:28:35;;;;;;;3.13;2.83;;;31.00;66.30;;;;;;5116944;27;20686;-70
2021/05/11 14:31:00;;;;;;;5.00;3.00;;;31.10;66.80;;;;;;5123253;27;20242;-68
2021/05/11 14:33:26;;;;;;;3.13;2.83;;;31.10;65.80;;;;;;5126776;27;20294;-70
2021/05/11 14:35:51;;;;;;;3.90;3.50;;;31.00;65.00;;;;;;5125618;27;20194;-69
2021/05/11 14:38:17;;;;;;;4.03;3.30;;;30.90;66.30;;;;;;5112617;27;20197;-68
2021/05/11 14:40:43;;;;;;;2.63;2.43;;;31.00;65.80;;;;;;5130573;27;20226;-69
2021/05/11 14:43:08;;;;;;;3.20;3.00;;;31.00;66.20;;;;;;5130734;27;20197;-69
2021/05/11 14:45:34;;;;;;;4.00;3.20;;;31.00;66.00;;;;;;5112374;27;20198;-70
2021/05/11 14:48:00;;;;;;;3.40;2.93;;;30.80;66.50;;;;;;5131691;27;20715;-70
2021/05/11 14:50:26;;;;;;;4.83;2.80;;;30.60;65.50;;;;;;5131475;27;20174;-69
2021/05/11 14:52:56;;;;;;;4.23;3.67;;;30.30;65.40;;;;;;5127151;27;20219;-68
2021/05/11 14:55:24;;;;;;;3.17;2.87;;;30.50;65.80;;;;;;5128860;27;20497;-71
2021/05/11 14:57:53;;;;;;;3.27;3.03;;;30.60;66.70;;;;;;5134556;27;20433;-69
2021/05/11 15:00:19;;;;;;;12.40;3.03;;;31.10;66.10;;;;;;5131081;27;20549;-68
2021/05/11 15:02:45;;;;;;;5.93;3.10;;;31.00;67.00;;;;;;5131404;27;20438;-69
2021/05/11 15:05:11;;;;;;;6.30;3.07;;;30.30;66.00;;;;;;5112481;28;20969;-71
2021/05/11 15:07:37;;;;;;;3.73;3.43;;;30.10;66.10;;;;;;5113977;28;20509;-69
2021/05/11 15:10:04;;;;;;;3.70;3.40;;;30.20;65.90;;;;;;5113833;28;20424;-69
2021/05/11 15:12:29;;;;;;;5.13;3.23;;;30.60;65.60;;;;;;5113439;28;20254;-69
2021/05/11 15:14:55;;;;;;;4.57;3.37;;;30.30;65.80;;;;;;5113097;28;20850;-70
2021/05/11 15:19:57;;;;;;;3.70;3.40;;;30.50;66.00;;;;;;5121677;27;20226;-69
2021/05/11 15:22:23;;;;;;;3.97;2.77;;;30.30;65.60;;;;;;5128816;27;20417;-68
2021/05/11 15:24:50;;;;;;;3.30;3.10;;;30.10;65.90;;;;;;5105916;28;20415;-70
2021/05/11 15:27:17;;;;;;;5.53;3.07;;;29.80;66.30;;;;;;5128565;27;20472;-69
2021/05/11 15:29:42;;;;;;;4.57;3.13;;;29.80;65.40;;;;;;5123871;27;20449;-68
2021/05/11 15:32:49;;;;;;;3.70;2.90;;;29.80;65.60;;;;;;5119309;28;20476;-69
2021/05/11 15:35:17;;;;;;;4.83;3.30;;;29.90;66.90;;;;;;5126183;28;20608;-69
2021/05/11 15:37:45;;;;;;;4.00;3.20;;;29.90;66.10;;;;;;5117654;27;20542;-67
2021/05/11 15:40:14;;;;;;;5.00;3.43;;;29.70;66.00;;;;;;5123742;27;20475;-66
2021/05/11 15:42:40;;;;;;;6.33;3.60;;;29.70;66.20;;;;;;5110094;27;20450;-67
2021/05/11 15:45:07;;;;;;;4.83;3.10;;;29.60;66.10;;;;;;5124313;27;20508;-70
2021/05/11 15:47:32;;;;;;;6.70;3.70;;;29.50;66.30;;;;;;5117765;28;20203;-67
2021/05/11 15:49:58;;;;;;;6.90;3.90;;;29.60;67.50;;;;;;5106441;28;20501;-68
2021/05/11 15:52:24;;;;;;;5.10;3.97;;;29.50;66.10;;;;;;5120018;27;20565;-67
2021/05/11 15:54:50;;;;;;;4.70;3.60;;;29.40;66.70;;;;;;5117027;28;20177;-69
2021/05/11 15:57:16;;;;;;;3.40;3.10;;;29.50;67.90;;;;;;5128842;27;20225;-68
2021/05/11 15:59:42;;;;;;;4.27;3.17;;;29.30;67.40;;;;;;5127385;27;20413;-70
2021/05/11 16:02:08;;;;;;;6.63;3.90;;;29.00;67.30;;;;;;5134173;27;20425;-68
2021/05/11 16:04:34;;;;;;;4.37;3.80;;;28.90;67.30;;;;;;5128354;27;20205;-69
2021/05/11 16:06:59;;;;;;;5.87;3.60;;;29.10;67.40;;;;;;5127902;27;20421;-69
2021/05/11 16:09:25;;;;;;;5.70;3.00;;;28.80;67.70;;;;;;5111116;28;20193;-69
2021/05/11 16:11:51;;;;;;;5.40;3.50;;;29.20;67.00;;;;;;5116945;28;20209;-68
2021/05/11 16:14:17;;;;;;;4.17;3.77;;;29.20;66.10;;;;;;5116411;28;20194;-69
2021/05/11 16:16:42;;;;;;;3.50;3.27;;;29.00;66.60;;;;;;5135260;27;20637;-69
2021/05/11 16:19:08;;;;;;;7.30;3.40;;;28.90;66.80;;;;;;5135576;27;20196;-68
2021/05/11 16:21:34;;;;;;;5.30;3.77;;;29.30;67.30;;;;;;5137388;27;20172;-68
2021/05/11 16:24:00;;;;;;;3.53;3.33;;;29.50;66.80;;;;;;5132336;27;20670;-68
2021/05/11 16:26:26;;;;;;;4.10;3.70;;;29.30;68.10;;;;;;5112630;27;20434;-67
2021/05/11 16:28:53;;;;;;;4.07;3.00;;;29.00;67.50;;;;;;5133506;27;20436;-67
2021/05/11 16:31:20;;;;;;;3.13;2.83;;;28.80;68.10;;;;;;5127945;27;20459;-69
2021/05/11 16:33:45;;;;;;;4.20;3.83;;;28.70;68.20;;;;;;5136484;27;20834;-69
2021/05/11 16:36:11;;;;;;;13.07;3.30;;;28.60;68.00;;;;;;5136875;27;20415;-68
2021/05/11 16:38:37;;;;;;;4.80;3.67;;;28.90;68.10;;;;;;5130182;27;20658;-67
2021/05/11 16:41:03;;;;;;;3.40;3.20;;;28.70;68.70;;;;;;5133511;27;20195;-67
2021/05/11 16:43:28;;;;;;;5.77;3.33;;;28.80;68.70;;;;;;5132669;27;20200;-69
2021/05/11 16:45:56;;;;;;;11.73;3.67;;;28.90;68.20;;;;;;5129303;27;20185;-69
2021/05/11 16:48:22;;;;;;;4.67;3.60;;;29.10;67.90;;;;;;5115746;27;20205;-67
2021/05/11 16:50:48;;;;;;;6.97;3.30;;;28.80;68.40;;;;;;5133705;27;20421;-67
2021/05/11 16:53:15;;;;;;;4.17;3.77;;;28.70;68.80;;;;;;5115813;27;20476;-67
2021/05/11 16:55:42;;;;;;;3.53;3.23;;;28.80;69.20;;;;;;5117084;27;20232;-67
2021/05/11 16:58:08;;;;;;;5.90;3.53;;;28.70;69.10;;;;;;5136576;27;20427;-67
2021/05/11 17:00:35;;;;;;;5.10;3.57;;;28.60;69.50;;;;;;5135788;27;20549;-68
2021/05/11 17:03:01;;;;;;;3.23;2.93;;;28.50;69.70;;;;;;5116882;27;20301;-69
2021/05/11 17:05:27;;;;;;;4.00;3.20;;;28.80;69.30;;;;;;5117626;27;20592;-67
2021/05/11 17:07:56;;;;;;;4.73;3.40;;;28.90;69.50;;;;;;5114592;27;20526;-69
2021/05/11 17:10:27;;;;;;;5.90;3.50;;;28.50;69.60;;;;;;5135493;27;20187;-68
2021/05/11 17:12:54;;;;;;;4.13;3.20;;;28.50;69.40;;;;;;5133766;27;20474;-68
2021/05/11 17:15:20;;;;;;;3.50;3.20;;;28.40;70.10;;;;;;5114192;27;20418;-67
2021/05/11 17:17:46;;;;;;;6.50;3.30;;;28.10;71.30;;;;;;5132330;27;20423;-68
2021/05/11 17:20:14;;;;;;;6.03;3.63;;;28.00;71.80;;;;;;5133158;27;20176;-67